Time;durP1;ratioP1;P1;durP2;ratioP2;P2;SDS_P1;SDS_P2;PMS_P1;PMS_P2;Temp;Humidity;BMP_temperature;BMP_pressure;BME280_temperature;BME280_humidity;BME280_pressure;Samples;Min_cycle;Max_cycle;Signal;HPM_P1;HPM_P2
2021/03/03 00:00:38;;;;;;;36.42;12.90;;;;;;;;;;5024191;28;20032;-60
2021/03/03 00:03:04;;;;;;;28.77;11.57;;;;;;;;;;5041854;28;20080;-61
2021/03/03 00:05:29;;;;;;;35.38;12.05;;;;;;;;;;5004917;28;20127;-60
2021/03/03 00:07:55;;;;;;;31.98;13.02;;;;;;;;;;5042687;28;20123;-62
2021/03/03 00:10:21;;;;;;;31.85;13.27;;;;;;;;;;5042863;28;20526;-60
2021/03/03 00:12:46;;;;;;;35.67;12.43;;;;;;;;;;5024699;28;20036;-61
2021/03/03 00:15:15;;;;;;;27.77;11.30;;;;;;;;;;5007294;28;20151;-61
2021/03/03 00:17:43;;;;;;;33.47;12.40;;;;;;;;;;5022223;28;22023;-61
2021/03/03 00:20:11;;;;;;;33.28;13.50;;;;;;;;;;5025454;28;20063;-60
2021/03/03 00:22:39;;;;;;;31.63;12.90;;;;;;;;;;5041191;28;20052;-61
2021/03/03 00:25:09;;;;;;;35.53;13.73;;;;;;;;;;5025406;28;20032;-61
2021/03/03 00:27:35;;;;;;;28.08;12.20;;;;;;;;;;5026366;28;20135;-62
2021/03/03 00:30:03;;;;;;;36.05;12.60;;;;;;;;;;5024566;28;20602;-61
2021/03/03 00:32:31;;;;;;;31.10;11.93;;;;;;;;;;5025668;28;22061;-60
2021/03/03 00:34:56;;;;;;;27.33;11.30;;;;;;;;;;5005407;28;20064;-60
2021/03/03 00:37:21;;;;;;;35.33;13.63;;;;;;;;;;5022592;28;20226;-60
2021/03/03 00:39:48;;;;;;;38.03;13.15;;;;;;;;;;5041185;28;20032;-60
2021/03/03 00:42:14;;;;;;;39.45;14.20;;;;;;;;;;5021084;28;20045;-60
2021/03/03 00:44:42;;;;;;;27.42;11.40;;;;;;;;;;4999596;28;20054;-60
2021/03/03 00:47:10;;;;;;;32.15;12.18;;;;;;;;;;5007437;28;20029;-60
2021/03/03 00:49:36;;;;;;;36.80;11.90;;;;;;;;;;5006978;28;20036;-60
2021/03/03 00:52:04;;;;;;;27.90;12.43;;;;;;;;;;5023543;28;20121;-61
2021/03/03 00:54:31;;;;;;;33.00;12.02;;;;;;;;;;5021771;28;20037;-61
2021/03/03 00:56:59;;;;;;;26.80;10.80;;;;;;;;;;5023394;28;20063;-61
2021/03/03 00:59:24;;;;;;;34.47;13.35;;;;;;;;;;5025096;28;20181;-59
2021/03/03 01:01:53;;;;;;;30.80;12.52;;;;;;;;;;5022613;28;20115;-60
2021/03/03 01:04:18;;;;;;;32.10;12.23;;;;;;;;;;5043214;28;20487;-62
2021/03/03 01:06:46;;;;;;;32.30;12.65;;;;;;;;;;5022793;28;20078;-60
2021/03/03 01:09:16;;;;;;;36.72;13.85;;;;;;;;;;5024352;28;20028;-60
2021/03/03 01:11:44;;;;;;;28.55;12.10;;;;;;;;;;5024759;28;20061;-60
2021/03/03 01:14:14;;;;;;;31.42;11.68;;;;;;;;;;5025430;28;20396;-62
2021/03/03 01:16:41;;;;;;;29.67;11.00;;;;;;;;;;4991948;28;20041;-59
2021/03/03 01:19:11;;;;;;;27.83;12.50;;;;;;;;;;5005618;28;20063;-61
2021/03/03 01:21:37;;;;;;;42.13;13.23;;;;;;;;;;5021293;28;20060;-60
2021/03/03 01:24:09;;;;;;;28.60;12.55;;;;;;;;;;5008045;28;20063;-61
2021/03/03 01:26:36;;;;;;;31.73;13.48;;;;;;;;;;5022627;28;20101;-60
2021/03/03 01:29:02;;;;;;;31.08;11.95;;;;;;;;;;5020207;28;20652;-60
2021/03/03 01:31:28;;;;;;;23.00;10.35;;;;;;;;;;5023190;28;20028;-60
2021/03/03 01:33:58;;;;;;;21.92;10.57;;;;;;;;;;5006688;28;20036;-60
2021/03/03 01:36:28;;;;;;;34.65;11.25;;;;;;;;;;5004807;28;20031;-60
2021/03/03 01:38:56;;;;;;;31.77;12.05;;;;;;;;;;5022430;28;20037;-60
2021/03/03 01:41:24;;;;;;;38.00;11.73;;;;;;;;;;5040745;28;20032;-60
2021/03/03 01:43:50;;;;;;;28.48;11.55;;;;;;;;;;4998772;28;20173;-60
2021/03/03 01:46:20;;;;;;;31.55;11.80;;;;;;;;;;5004883;28;20036;-61
2021/03/03 01:48:46;;;;;;;30.98;11.35;;;;;;;;;;5003354;28;20353;-60
2021/03/03 01:51:13;;;;;;;24.90;11.52;;;;;;;;;;5019937;28;20089;-60
2021/03/03 01:53:41;;;;;;;30.80;11.32;;;;;;;;;;5041534;28;20029;-60
2021/03/03 01:56:06;;;;;;;32.28;11.57;;;;;;;;;;5021742;28;20132;-60
2021/03/03 01:58:36;;;;;;;36.20;12.85;;;;;;;;;;5021505;28;20032;-60
2021/03/03 02:01:07;;;;;;;30.48;11.10;;;;;;;;;;5021863;28;20649;-60
2021/03/03 02:03:32;;;;;;;29.33;11.52;;;;;;;;;;5023783;28;20047;-60
2021/03/03 02:06:04;;;;;;;28.17;11.48;;;;;;;;;;5020504;28;20040;-60
2021/03/03 02:08:50;;;;;;;30.02;12.20;;;;;;;;;;5042357;28;20033;-60
2021/03/03 02:11:19;;;;;;;30.50;12.13;;;;;;;;;;5010057;28;20650;-61
2021/03/03 02:13:52;;;;;;;30.00;11.50;;;;;;;;;;5025966;28;20029;-59
2021/03/03 02:16:19;;;;;;;27.20;11.52;;;;;;;;;;5025265;28;20036;-61
2021/03/03 02:18:46;;;;;;;29.58;12.52;;;;;;;;;;5044360;28;20047;-62
2021/03/03 02:21:30;;;;;;;31.00;11.75;;;;;;;;;;5021424;28;20043;-61
2021/03/03 02:23:58;;;;;;;30.17;10.88;;;;;;;;;;5045746;28;20036;-60
2021/03/03 02:26:33;;;;;;;34.55;12.88;;;;;;;;;;5045840;28;20054;-60
2021/03/03 02:29:08;;;;;;;30.35;11.43;;;;;;;;;;5025368;28;20998;-60
2021/03/03 02:31:34;;;;;;;31.95;13.13;;;;;;;;;;5012130;28;20028;-60
2021/03/03 02:34:04;;;;;;;34.83;12.05;;;;;;;;;;5038809;28;20031;-60
2021/03/03 02:36:29;;;;;;;32.03;11.88;;;;;;;;;;5046291;28;20116;-60
2021/03/03 02:39:01;;;;;;;27.35;11.52;;;;;;;;;;5027008;28;20195;-60
2021/03/03 02:41:32;;;;;;;29.02;11.98;;;;;;;;;;5025576;28;20047;-59
2021/03/03 02:44:01;;;;;;;30.77;12.32;;;;;;;;;;5005839;28;20476;-60
2021/03/03 02:46:27;;;;;;;31.45;12.65;;;;;;;;;;5046263;28;20083;-61
2021/03/03 02:48:53;;;;;;;34.60;12.60;;;;;;;;;;5020702;28;20587;-59
2021/03/03 02:51:21;;;;;;;33.90;13.48;;;;;;;;;;5043969;28;20082;-60
2021/03/03 02:53:46;;;;;;;36.03;12.95;;;;;;;;;;5018644;28;20061;-59
2021/03/03 02:56:12;;;;;;;35.13;12.70;;;;;;;;;;5024794;28;20058;-59
2021/03/03 02:58:43;;;;;;;34.47;13.10;;;;;;;;;;5008837;28;20087;-59
2021/03/03 03:01:12;;;;;;;30.17;12.75;;;;;;;;;;5023844;28;20028;-59
2021/03/03 03:03:50;;;;;;;34.03;12.45;;;;;;;;;;5041869;28;20087;-60
2021/03/03 03:06:17;;;;;;;30.73;13.38;;;;;;;;;;5008589;28;20040;-59
2021/03/03 03:08:45;;;;;;;41.53;14.35;;;;;;;;;;5043412;28;20116;-59
2021/03/03 03:11:16;;;;;;;39.60;13.65;;;;;;;;;;5045021;28;20055;-59
2021/03/03 03:13:44;;;;;;;28.48;12.52;;;;;;;;;;5042511;28;20204;-61
2021/03/03 03:16:16;;;;;;;45.83;13.02;;;;;;;;;;5044128;28;20025;-59
2021/03/03 03:18:52;;;;;;;42.83;12.77;;;;;;;;;;5026713;28;20028;-59
2021/03/03 03:21:20;;;;;;;31.48;12.38;;;;;;;;;;5043938;28;20095;-59
2021/03/03 03:23:49;;;;;;;36.47;13.27;;;;;;;;;;5044932;28;20133;-60
2021/03/03 03:26:21;;;;;;;29.17;12.80;;;;;;;;;;5004863;28;20127;-60
2021/03/03 03:28:50;;;;;;;38.75;13.10;;;;;;;;;;5044539;28;20098;-60
2021/03/03 03:31:17;;;;;;;36.08;13.90;;;;;;;;;;5009432;28;20463;-60
2021/03/03 03:33:44;;;;;;;31.60;12.93;;;;;;;;;;5007972;28;20032;-60
2021/03/03 03:36:12;;;;;;;32.17;13.18;;;;;;;;;;5041306;28;20064;-60
2021/03/03 03:38:43;;;;;;;31.80;12.27;;;;;;;;;;5025789;28;20048;-59
2021/03/03 03:41:11;;;;;;;29.90;12.95;;;;;;;;;;5043843;28;20070;-59
2021/03/03 03:43:40;;;;;;;31.95;12.13;;;;;;;;;;5025653;28;20040;-61
2021/03/03 03:46:10;;;;;;;32.78;12.57;;;;;;;;;;5024979;28;20683;-59
2021/03/03 03:48:36;;;;;;;27.35;11.95;;;;;;;;;;5009185;28;20040;-60
2021/03/03 03:51:04;;;;;;;31.60;11.95;;;;;;;;;;4992846;28;20636;-59
2021/03/03 03:53:32;;;;;;;33.25;13.48;;;;;;;;;;5043075;28;20021;-59
2021/03/03 03:55:58;;;;;;;29.65;12.48;;;;;;;;;;5021870;28;20024;-60
2021/03/03 03:58:26;;;;;;;36.05;12.77;;;;;;;;;;5018547;28;20044;-59
2021/03/03 04:00:51;;;;;;;42.08;13.73;;;;;;;;;;5003955;28;20032;-58
2021/03/03 04:03:17;;;;;;;34.88;13.50;;;;;;;;;;5008876;28;20127;-59
2021/03/03 04:05:43;;;;;;;31.02;13.45;;;;;;;;;;5039307;28;20057;-59
2021/03/03 04:11:44;;;;;;;24.45;11.93;;;;;;;;;;5043025;28;20022;-59
2021/03/03 04:14:11;;;;;;;29.95;12.20;;;;;;;;;;5380940;22;20522;-59
2021/03/03 04:16:42;;;;;;;34.03;12.45;;;;;;;;;;5037481;28;20033;-59
2021/03/03 04:19:07;;;;;;;33.75;14.43;;;;;;;;;;5029899;28;20190;-59
2021/03/03 04:21:33;;;;;;;42.10;15.85;;;;;;;;;;5042110;28;20036;-59
2021/03/03 04:24:01;;;;;;;27.42;12.77;;;;;;;;;;5039285;28;21590;-59
2021/03/03 04:26:31;;;;;;;31.02;11.80;;;;;;;;;;5037042;28;20555;-60
2021/03/03 04:28:56;;;;;;;32.35;14.15;;;;;;;;;;5026925;28;20024;-58
2021/03/03 04:31:22;;;;;;;36.20;12.98;;;;;;;;;;5058515;28;20038;-59
2021/03/03 04:33:48;;;;;;;31.52;13.70;;;;;;;;;;5039384;28;20032;-59
2021/03/03 04:36:13;;;;;;;31.73;12.93;;;;;;;;;;5027113;28;20036;-59
2021/03/03 04:38:41;;;;;;;35.13;12.40;;;;;;;;;;5009036;28;20036;-59
2021/03/03 04:41:09;;;;;;;33.63;12.23;;;;;;;;;;5056536;28;20217;-58
2021/03/03 04:43:37;;;;;;;29.75;12.10;;;;;;;;;;5026314;28;20139;-61
2021/03/03 04:46:06;;;;;;;30.45;12.07;;;;;;;;;;5055738;28;20445;-60
2021/03/03 04:48:34;;;;;;;31.63;12.45;;;;;;;;;;5037822;28;20039;-61
2021/03/03 04:51:00;;;;;;;28.60;12.00;;;;;;;;;;5035724;28;20032;-59
2021/03/03 04:53:28;;;;;;;29.17;13.38;;;;;;;;;;5043997;28;20033;-60
2021/03/03 04:55:54;;;;;;;35.40;14.40;;;;;;;;;;5053738;28;20036;-59
2021/03/03 04:58:19;;;;;;;27.33;12.25;;;;;;;;;;5052250;28;20870;-59
2021/03/03 05:00:47;;;;;;;34.80;15.02;;;;;;;;;;5055344;28;20082;-59
2021/03/03 05:03:14;;;;;;;34.78;13.00;;;;;;;;;;5052606;28;20119;-58
2021/03/03 05:05:45;;;;;;;34.35;13.48;;;;;;;;;;5038273;28;20111;-58
2021/03/03 05:08:11;;;;;;;35.38;14.52;;;;;;;;;;5056544;28;20036;-59
2021/03/03 05:10:36;;;;;;;32.15;13.68;;;;;;;;;;5058010;28;20402;-58
2021/03/03 05:13:04;;;;;;;34.60;12.90;;;;;;;;;;5044666;28;20038;-59
2021/03/03 05:15:34;;;;;;;34.00;14.48;;;;;;;;;;5037429;28;20040;-59
2021/03/03 05:18:02;;;;;;;36.90;13.45;;;;;;;;;;5011952;28;20043;-59
2021/03/03 05:20:32;;;;;;;38.75;12.75;;;;;;;;;;5025025;28;20043;-59
2021/03/03 05:23:00;;;;;;;33.40;13.40;;;;;;;;;;5042799;28;20028;-59
2021/03/03 05:25:29;;;;;;;33.63;13.65;;;;;;;;;;5037824;28;20131;-59
2021/03/03 05:27:57;;;;;;;30.60;12.50;;;;;;;;;;5030405;28;20025;-60
2021/03/03 05:30:25;;;;;;;31.70;14.32;;;;;;;;;;5054625;28;20028;-60
2021/03/03 05:32:51;;;;;;;35.47;14.80;;;;;;;;;;5056040;28;20028;-60
2021/03/03 05:35:19;;;;;;;30.05;13.02;;;;;;;;;;5044095;28;20497;-59
2021/03/03 05:37:44;;;;;;;30.90;13.20;;;;;;;;;;5036650;28;20052;-59
2021/03/03 05:40:12;;;;;;;32.65;13.73;;;;;;;;;;5026501;28;20037;-59
2021/03/03 05:42:40;;;;;;;27.60;13.15;;;;;;;;;;5035162;28;20089;-59
2021/03/03 05:45:06;;;;;;;43.80;14.32;;;;;;;;;;5025889;28;20111;-59
2021/03/03 05:47:36;;;;;;;34.88;14.15;;;;;;;;;;5055140;28;20725;-59
2021/03/03 05:50:07;;;;;;;39.05;13.40;;;;;;;;;;5056669;28;20893;-59
2021/03/03 05:52:36;;;;;;;33.83;14.02;;;;;;;;;;5046693;28;20032;-59
2021/03/03 05:55:04;;;;;;;31.02;13.70;;;;;;;;;;5028450;28;20111;-58
2021/03/03 05:57:30;;;;;;;38.53;13.30;;;;;;;;;;5060508;28;20158;-58
2021/03/03 06:00:00;;;;;;;29.80;12.40;;;;;;;;;;5060371;28;20093;-59
2021/03/03 06:02:29;;;;;;;33.20;14.25;;;;;;;;;;5059425;28;20039;-60
2021/03/03 06:05:00;;;;;;;36.20;12.98;;;;;;;;;;5045983;28;20033;-59
2021/03/03 06:07:25;;;;;;;30.45;14.18;;;;;;;;;;5045793;28;20025;-61
2021/03/03 06:09:51;;;;;;;29.40;13.80;;;;;;;;;;5058239;28;20988;-60
2021/03/03 06:12:19;;;;;;;34.60;14.25;;;;;;;;;;5014545;28;20043;-59
2021/03/03 06:14:44;;;;;;;32.17;13.98;;;;;;;;;;5045276;28;20044;-60
2021/03/03 06:17:15;;;;;;;38.10;14.32;;;;;;;;;;5033632;28;21636;-59
2021/03/03 06:19:41;;;;;;;35.75;13.95;;;;;;;;;;5046933;28;20077;-59
2021/03/03 06:22:22;;;;;;;28.83;13.60;;;;;;;;;;5059250;28;20044;-59
2021/03/03 06:24:48;;;;;;;34.50;14.05;;;;;;;;;;5058492;28;20040;-59
2021/03/03 06:27:16;;;;;;;38.72;14.48;;;;;;;;;;5032279;28;20043;-59
2021/03/03 06:29:59;;;;;;;35.55;14.65;;;;;;;;;;5058983;28;20032;-60
2021/03/03 06:32:28;;;;;;;33.58;13.93;;;;;;;;;;5059064;28;20058;-61
2021/03/03 06:34:54;;;;;;;34.70;14.57;;;;;;;;;;5039191;28;20043;-59
2021/03/03 06:37:27;;;;;;;29.60;14.55;;;;;;;;;;5059214;28;20545;-61
2021/03/03 06:40:09;;;;;;;38.72;16.30;;;;;;;;;;5030346;28;20055;-62
2021/03/03 06:42:35;;;;;;;41.72;15.07;;;;;;;;;;5059123;28;20403;-60
2021/03/03 06:45:04;;;;;;;34.58;13.65;;;;;;;;;;5040667;28;20039;-60
2021/03/03 06:47:30;;;;;;;36.42;15.15;;;;;;;;;;5058264;28;20126;-60
2021/03/03 06:50:09;;;;;;;38.63;14.98;;;;;;;;;;5042770;28;20465;-58
2021/03/03 06:52:42;;;;;;;36.92;14.60;;;;;;;;;;5045490;28;20962;-58
2021/03/03 06:55:10;;;;;;;39.47;15.60;;;;;;;;;;5056713;28;20036;-58
2021/03/03 06:57:38;;;;;;;32.40;14.02;;;;;;;;;;5057988;28;20495;-59
2021/03/03 07:00:06;;;;;;;30.20;14.93;;;;;;;;;;5047743;28;20043;-59
2021/03/03 07:02:32;;;;;;;36.53;14.45;;;;;;;;;;5057943;28;20061;-59
2021/03/03 07:04:57;;;;;;;40.33;15.07;;;;;;;;;;5053212;28;20052;-59
2021/03/03 07:07:26;;;;;;;37.80;15.75;;;;;;;;;;5054826;28;20036;-59
2021/03/03 07:09:58;;;;;;;39.33;15.57;;;;;;;;;;5037037;28;20047;-59
2021/03/03 07:12:28;;;;;;;36.17;15.00;;;;;;;;;;5018605;28;20055;-60
2021/03/03 07:15:04;;;;;;;39.28;14.75;;;;;;;;;;5040354;28;20189;-60
2021/03/03 07:17:33;;;;;;;35.13;14.77;;;;;;;;;;5040958;28;20070;-59
2021/03/03 07:20:00;;;;;;;35.92;14.48;;;;;;;;;;5055085;28;20039;-59
2021/03/03 07:22:25;;;;;;;40.45;16.13;;;;;;;;;;5040570;28;20056;-59
2021/03/03 07:24:52;;;;;;;31.63;14.65;;;;;;;;;;5033344;28;20916;-60
2021/03/03 07:27:18;;;;;;;34.28;14.48;;;;;;;;;;5037516;28;20535;-60
2021/03/03 07:29:45;;;;;;;36.08;15.25;;;;;;;;;;5040086;28;20601;-60
2021/03/03 07:32:15;;;;;;;43.50;15.38;;;;;;;;;;5058598;28;20564;-59
2021/03/03 07:34:43;;;;;;;29.10;14.13;;;;;;;;;;5028686;28;20077;-60
2021/03/03 07:37:11;;;;;;;38.15;14.88;;;;;;;;;;5040499;28;20111;-60
2021/03/03 07:39:38;;;;;;;37.05;14.13;;;;;;;;;;5059886;28;20529;-59
2021/03/03 07:42:05;;;;;;;34.72;15.18;;;;;;;;;;5047692;28;20039;-59
2021/03/03 07:44:36;;;;;;;28.70;13.98;;;;;;;;;;5042851;28;20889;-60
2021/03/03 07:47:02;;;;;;;37.80;15.13;;;;;;;;;;5059116;28;20112;-59
2021/03/03 07:49:28;;;;;;;26.23;13.57;;;;;;;;;;5057798;28;20024;-61
2021/03/03 07:51:55;;;;;;;27.50;14.00;;;;;;;;;;5041327;28;20158;-59
2021/03/03 07:54:21;;;;;;;31.15;13.85;;;;;;;;;;5047927;28;20489;-60
2021/03/03 07:56:47;;;;;;;37.50;15.10;;;;;;;;;;5025776;28;20062;-60
2021/03/03 07:59:15;;;;;;;41.13;15.10;;;;;;;;;;5025044;28;20052;-60
2021/03/03 08:01:41;;;;;;;33.55;14.55;;;;;;;;;;5024527;28;20118;-60
2021/03/03 08:04:29;;;;;;;36.33;13.95;;;;;;;;;;5054551;28;20064;-60
2021/03/03 08:07:12;;;;;;;33.85;13.60;;;;;;;;;;5041358;28;20132;-60
2021/03/03 08:09:40;;;;;;;;;;;;;;;;;;5057278;28;20108;-60
2021/03/03 08:12:08;;;;;;;32.95;13.45;;;;;;;;;;5038613;28;19970;-60
2021/03/03 08:14:35;;;;;;;35.22;15.10;;;;;;;;;;5040407;28;20059;-60
2021/03/03 08:17:05;;;;;;;28.90;13.63;;;;;;;;;;5036608;28;20032;-59
2021/03/03 08:19:52;;;;;;;32.83;14.27;;;;;;;;;;5058186;28;20032;-60
2021/03/03 08:22:21;;;;;;;29.02;14.45;;;;;;;;;;5055986;28;20070;-60
2021/03/03 08:24:46;;;;;;;34.90;15.25;;;;;;;;;;5039995;28;20424;-59
2021/03/03 08:27:41;;;;;;;32.58;15.45;;;;;;;;;;5044017;28;20086;-60
2021/03/03 08:30:11;;;;;;;36.17;15.05;;;;;;;;;;5038658;28;20044;-61
2021/03/03 08:32:37;;;;;;;40.70;16.50;;;;;;;;;;5043482;28;20395;-59
2021/03/03 08:35:06;;;;;;;34.42;15.35;;;;;;;;;;5042213;28;20061;-61
2021/03/03 08:37:32;;;;;;;32.17;14.88;;;;;;;;;;5039637;28;20028;-60
2021/03/03 08:40:01;;;;;;;35.28;16.67;;;;;;;;;;5057102;28;20028;-59
2021/03/03 08:42:28;;;;;;;34.88;15.65;;;;;;;;;;5057304;28;20037;-60
2021/03/03 08:45:04;;;;;;;37.45;15.95;;;;;;;;;;5056808;28;20039;-59
2021/03/03 08:47:45;;;;;;;31.67;15.48;;;;;;;;;;5039022;28;20044;-60
2021/03/03 08:50:31;;;;;;;34.35;14.82;;;;;;;;;;5055388;28;20024;-59
2021/03/03 08:53:20;;;;;;;35.30;15.20;;;;;;;;;;5058072;28;20036;-60
2021/03/03 08:55:47;;;;;;;36.90;15.68;;;;;;;;;;5024069;28;20030;-59
2021/03/03 08:58:48;;;;;;;33.88;15.30;;;;;;;;;;5058516;28;20235;-59
2021/03/03 09:01:14;;;;;;;35.25;17.42;;;;;;;;;;4998736;28;20060;-59
2021/03/03 09:03:39;;;;;;;35.30;15.77;;;;;;;;;;5056831;28;20055;-60
2021/03/03 09:06:07;;;;;;;36.75;16.08;;;;;;;;;;5039177;28;20153;-60
2021/03/03 09:08:32;;;;;;;34.15;16.08;;;;;;;;;;5057435;28;20469;-60
2021/03/03 09:10:57;;;;;;;35.10;15.90;;;;;;;;;;5053017;28;21935;-60
2021/03/03 09:13:26;;;;;;;33.83;15.40;;;;;;;;;;5011065;28;20036;-60
2021/03/03 09:16:08;;;;;;;36.20;15.60;;;;;;;;;;5057360;28;20040;-59
2021/03/03 09:18:37;;;;;;;30.30;15.55;;;;;;;;;;5039099;28;20032;-59
2021/03/03 09:21:09;;;;;;;30.77;14.85;;;;;;;;;;5042788;28;20234;-59
2021/03/03 09:23:35;;;;;;;30.13;15.35;;;;;;;;;;5038080;28;20036;-60
2021/03/03 09:26:01;;;;;;;30.80;15.60;;;;;;;;;;5038381;28;20028;-60
2021/03/03 09:28:39;;;;;;;31.10;14.18;;;;;;;;;;5057100;28;20221;-59
2021/03/03 09:31:05;;;;;;;30.63;14.80;;;;;;;;;;5044239;28;20057;-60
2021/03/03 09:33:30;;;;;;;27.60;14.48;;;;;;;;;;5021662;28;20063;-60
2021/03/03 09:35:56;;;;;;;39.05;15.70;;;;;;;;;;5029964;28;20145;-61
2021/03/03 09:38:21;;;;;;;26.85;14.45;;;;;;;;;;5057103;28;20071;-60
2021/03/03 09:40:48;;;;;;;30.00;15.40;;;;;;;;;;5013120;28;20801;-60
2021/03/03 09:43:14;;;;;;;27.33;14.65;;;;;;;;;;5041592;28;20119;-60
2021/03/03 09:45:39;;;;;;;29.75;14.75;;;;;;;;;;5025272;28;20067;-59
2021/03/03 09:48:08;;;;;;;31.90;14.93;;;;;;;;;;5026456;28;20040;-60
2021/03/03 09:50:37;;;;;;;28.17;13.68;;;;;;;;;;5023817;28;20040;-60
2021/03/03 09:53:08;;;;;;;32.97;14.98;;;;;;;;;;5054789;28;20118;-59
2021/03/03 09:55:35;;;;;;;32.30;14.70;;;;;;;;;;5010098;28;20034;-60
2021/03/03 09:58:01;;;;;;;33.90;16.90;;;;;;;;;;5024964;28;20028;-60
2021/03/03 10:00:33;;;;;;;29.08;14.13;;;;;;;;;;5051762;28;20047;-61
2021/03/03 10:03:00;;;;;;;33.03;15.50;;;;;;;;;;5025637;28;20077;-60
2021/03/03 10:05:28;;;;;;;33.17;16.20;;;;;;;;;;5018104;28;20032;-61
2021/03/03 10:08:00;;;;;;;26.23;14.45;;;;;;;;;;5024146;28;20042;-60
2021/03/03 10:10:38;;;;;;;32.22;15.55;;;;;;;;;;5020065;28;20686;-61
2021/03/03 10:13:09;;;;;;;31.23;15.38;;;;;;;;;;5056204;28;20024;-60
2021/03/03 10:15:38;;;;;;;25.77;13.68;;;;;;;;;;5037034;28;20165;-60
2021/03/03 10:18:10;;;;;;;26.23;13.02;;;;;;;;;;5038761;28;20021;-60
2021/03/03 10:20:38;;;;;;;24.90;13.07;;;;;;;;;;5038688;28;20094;-60
2021/03/03 10:23:07;;;;;;;26.92;13.65;;;;;;;;;;5042270;28;21096;-60
2021/03/03 10:25:35;;;;;;;29.42;12.07;;;;;;;;;;5055030;28;20028;-61
2021/03/03 10:28:13;;;;;;;27.17;13.10;;;;;;;;;;5039394;28;20109;-60
2021/03/03 10:30:47;;;;;;;19.65;11.38;;;;;;;;;;5038708;28;20028;-59
2021/03/03 10:33:31;;;;;;;23.77;10.93;;;;;;;;;;5055142;28;20758;-60
2021/03/03 10:35:58;;;;;;;29.38;11.40;;;;;;;;;;5043530;28;20021;-60
2021/03/03 10:38:26;;;;;;;22.63;10.63;;;;;;;;;;5047218;28;20044;-60
2021/03/03 10:40:57;;;;;;;26.08;11.13;;;;;;;;;;5043469;28;20070;-61
2021/03/03 10:43:23;;;;;;;18.45;10.10;;;;;;;;;;5042179;28;20024;-60
2021/03/03 10:46:06;;;;;;;16.38;9.75;;;;;;;;;;5040796;28;20384;-60
2021/03/03 10:48:32;;;;;;;19.45;9.93;;;;;;;;;;5058876;28;20028;-59
2021/03/03 10:51:03;;;;;;;18.95;9.90;;;;;;;;;;5007958;28;20511;-60
2021/03/03 10:53:52;;;;;;;25.88;9.50;;;;;;;;;;5040904;28;20374;-59
2021/03/03 10:56:18;;;;;;;28.63;10.35;;;;;;;;;;5039869;28;20020;-60
2021/03/03 10:58:46;;;;;;;20.77;9.90;;;;;;;;;;5037681;28;20028;-60
2021/03/03 11:01:12;;;;;;;16.55;9.63;;;;;;;;;;5028296;28;20028;-60
2021/03/03 11:03:57;;;;;;;14.95;7.95;;;;;;;;;;5044943;28;20965;-60
2021/03/03 11:06:29;;;;;;;28.95;8.98;;;;;;;;;;5056615;28;20469;-60
2021/03/03 11:08:55;;;;;;;22.75;8.57;;;;;;;;;;5058808;28;20044;-60
2021/03/03 11:11:25;;;;;;;25.05;9.35;;;;;;;;;;5039216;28;20172;-61
2021/03/03 11:13:53;;;;;;;25.02;9.73;;;;;;;;;;5024017;28;20032;-61
2021/03/03 11:16:22;;;;;;;30.30;8.80;;;;;;;;;;5044940;28;20046;-60
2021/03/03 11:18:50;;;;;;;19.35;8.55;;;;;;;;;;5040660;28;20628;-60
2021/03/03 11:21:16;;;;;;;26.65;9.65;;;;;;;;;;5041009;28;20089;-60
2021/03/03 11:23:42;;;;;;;26.55;8.93;;;;;;;;;;5042643;28;20039;-60
2021/03/03 11:26:10;;;;;;;21.63;8.77;;;;;;;;;;5055438;28;20383;-61
2021/03/03 11:28:35;;;;;;;24.75;10.93;;;;;;;;;;5056690;28;20035;-61
2021/03/03 11:31:04;;;;;;;21.40;9.57;;;;;;;;;;5026240;28;20032;-61
2021/03/03 11:33:29;;;;;;;23.38;9.82;;;;;;;;;;5013435;28;20040;-60
2021/03/03 11:35:55;;;;;;;27.23;10.93;;;;;;;;;;5012689;28;20053;-60
2021/03/03 11:38:20;;;;;;;19.85;10.63;;;;;;;;;;5040854;28;20054;-59
2021/03/03 11:40:46;;;;;;;20.60;9.98;;;;;;;;;;5057667;28;20112;-59
2021/03/03 11:43:11;;;;;;;21.45;10.75;;;;;;;;;;5040559;28;20040;-59
2021/03/03 11:45:37;;;;;;;22.58;10.02;;;;;;;;;;5021119;28;20471;-60
2021/03/03 11:48:02;;;;;;;23.70;11.00;;;;;;;;;;5026833;28;20082;-59
2021/03/03 11:50:30;;;;;;;25.85;11.93;;;;;;;;;;5056266;28;20059;-59
2021/03/03 11:52:56;;;;;;;31.40;12.30;;;;;;;;;;5054420;28;20036;-60
2021/03/03 11:55:21;;;;;;;20.42;11.35;;;;;;;;;;5014168;28;20032;-60
2021/03/03 11:57:47;;;;;;;21.90;10.73;;;;;;;;;;5038200;28;20149;-59
2021/03/03 12:00:15;;;;;;;28.23;11.30;;;;;;;;;;5012148;28;20032;-59
2021/03/03 12:02:43;;;;;;;22.55;11.27;;;;;;;;;;5039012;28;20056;-59
2021/03/03 12:05:09;;;;;;;23.83;10.85;;;;;;;;;;5038344;28;20032;-60
2021/03/03 12:07:37;;;;;;;27.15;11.48;;;;;;;;;;5056211;28;20031;-60
2021/03/03 12:10:06;;;;;;;23.33;11.90;;;;;;;;;;5047043;28;20028;-61
2021/03/03 12:12:31;;;;;;;26.38;12.27;;;;;;;;;;5056955;28;20162;-60
2021/03/03 12:14:57;;;;;;;22.48;11.45;;;;;;;;;;5039556;28;20055;-61
2021/03/03 12:17:23;;;;;;;22.73;11.10;;;;;;;;;;5046866;28;20028;-60
2021/03/03 12:19:52;;;;;;;26.00;11.02;;;;;;;;;;5013157;28;20060;-60
2021/03/03 12:22:20;;;;;;;25.20;12.07;;;;;;;;;;5012201;28;20605;-60
2021/03/03 12:24:45;;;;;;;24.75;12.93;;;;;;;;;;5024856;28;20253;-60
2021/03/03 12:27:13;;;;;;;28.17;13.57;;;;;;;;;;5027840;28;20064;-60
2021/03/03 12:29:38;;;;;;;25.02;11.98;;;;;;;;;;5029228;28;21426;-60
2021/03/03 12:32:04;;;;;;;27.08;12.88;;;;;;;;;;5036280;28;20028;-60
2021/03/03 12:34:30;;;;;;;28.38;13.30;;;;;;;;;;5007054;28;20029;-60
2021/03/03 12:36:55;;;;;;;28.10;13.43;;;;;;;;;;5033363;28;21393;-60
2021/03/03 12:39:26;;;;;;;26.05;12.93;;;;;;;;;;5019283;28;21802;-60
2021/03/03 12:41:52;;;;;;;29.15;14.98;;;;;;;;;;5054522;28;20041;-60
2021/03/03 12:44:20;;;;;;;28.70;14.20;;;;;;;;;;5039345;28;22278;-60
2021/03/03 12:46:48;;;;;;;28.85;14.65;;;;;;;;;;5056680;28;20143;-60
2021/03/03 12:49:18;;;;;;;29.92;14.63;;;;;;;;;;5056504;28;20032;-61
2021/03/03 12:51:44;;;;;;;28.98;15.43;;;;;;;;;;5035152;28;21629;-62
2021/03/03 12:54:14;;;;;;;35.53;16.00;;;;;;;;;;4993685;28;20040;-60
2021/03/03 12:56:41;;;;;;;30.27;14.82;;;;;;;;;;5010474;28;20043;-60
2021/03/03 12:59:08;;;;;;;32.05;14.85;;;;;;;;;;5044009;28;20275;-62
2021/03/03 13:01:34;;;;;;;32.40;14.82;;;;;;;;;;5047737;28;20028;-61
2021/03/03 13:04:00;;;;;;;33.40;16.08;;;;;;;;;;5057736;28;20167;-61
2021/03/03 13:06:26;;;;;;;33.67;15.20;;;;;;;;;;5038882;28;20658;-60
2021/03/03 13:08:53;;;;;;;32.58;15.77;;;;;;;;;;5038255;28;20060;-59
2021/03/03 13:11:23;;;;;;;30.60;14.80;;;;;;;;;;5049515;28;21203;-61
2021/03/03 13:13:52;;;;;;;34.05;15.65;;;;;;;;;;4998220;28;20190;-60
2021/03/03 13:16:17;;;;;;;35.78;16.67;;;;;;;;;;5027794;28;20093;-60
2021/03/03 13:18:45;;;;;;;34.63;15.73;;;;;;;;;;5044225;28;20032;-60
2021/03/03 13:21:14;;;;;;;37.13;16.48;;;;;;;;;;5055057;28;20146;-60
2021/03/03 13:23:39;;;;;;;37.92;15.50;;;;;;;;;;5037019;28;20040;-61
2021/03/03 13:26:07;;;;;;;33.55;15.40;;;;;;;;;;5056322;28;20031;-59
2021/03/03 13:28:33;;;;;;;32.78;15.05;;;;;;;;;;5025230;28;20043;-60
2021/03/03 13:31:00;;;;;;;32.25;15.82;;;;;;;;;;5022037;28;20067;-61
2021/03/03 13:33:31;;;;;;;37.40;14.82;;;;;;;;;;5056066;28;22008;-60
2021/03/03 13:36:01;;;;;;;29.50;15.52;;;;;;;;;;5055032;28;20938;-60
2021/03/03 13:38:27;;;;;;;34.67;15.27;;;;;;;;;;5042319;28;20065;-60
2021/03/03 13:40:57;;;;;;;36.78;15.48;;;;;;;;;;5043666;28;20032;-60
2021/03/03 13:43:23;;;;;;;34.15;14.60;;;;;;;;;;5037911;28;20137;-61
2021/03/03 13:45:49;;;;;;;35.05;14.95;;;;;;;;;;5043642;28;20044;-60
2021/03/03 13:48:14;;;;;;;37.58;15.98;;;;;;;;;;5020111;28;20699;-61
2021/03/03 13:50:39;;;;;;;34.33;15.10;;;;;;;;;;5022184;28;20033;-60
2021/03/03 13:53:05;;;;;;;30.83;15.05;;;;;;;;;;5040255;28;20448;-59
2021/03/03 13:55:30;;;;;;;30.15;14.02;;;;;;;;;;5040019;28;20514;-60
2021/03/03 13:57:56;;;;;;;34.28;15.93;;;;;;;;;;5040426;28;20509;-59
2021/03/03 14:00:25;;;;;;;31.75;14.25;;;;;;;;;;5042982;28;20143;-59
2021/03/03 14:02:53;;;;;;;33.40;14.57;;;;;;;;;;5039983;28;20051;-59
2021/03/03 14:05:21;;;;;;;28.85;14.38;;;;;;;;;;5036815;28;20037;-60
2021/03/03 14:07:49;;;;;;;29.58;13.88;;;;;;;;;;5025745;28;20075;-60
2021/03/03 14:10:17;;;;;;;26.95;13.73;;;;;;;;;;5041771;28;20028;-61
2021/03/03 14:12:42;;;;;;;26.92;14.13;;;;;;;;;;5046945;28;20081;-61
2021/03/03 14:15:08;;;;;;;31.52;14.85;;;;;;;;;;5046691;28;20138;-60
2021/03/03 14:17:33;;;;;;;32.95;14.73;;;;;;;;;;5027842;28;20051;-60
2021/03/03 14:20:02;;;;;;;31.40;13.73;;;;;;;;;;5045739;28;20064;-60
2021/03/03 14:22:32;;;;;;;32.80;13.82;;;;;;;;;;5028061;28;20031;-60
2021/03/03 14:25:00;;;;;;;31.65;13.63;;;;;;;;;;5043867;28;20028;-61
2021/03/03 14:27:25;;;;;;;28.92;13.75;;;;;;;;;;5046763;28;20043;-59
2021/03/03 14:29:53;;;;;;;27.98;13.30;;;;;;;;;;5029541;28;20032;-61